createdAt,value
2022-08-27T00:01:30.085Z,69.28
2022-08-27T00:03:58.655Z,174.30
2022-08-27T00:06:28.592Z,128.32
2022-08-27T00:08:58.354Z,317.15
2022-08-27T00:11:28.350Z,157.63
2022-08-27T00:13:57.164Z,184.93
2022-08-27T00:16:26.221Z,811.92
2022-08-27T00:18:57.094Z,259.73
2022-08-27T00:21:25.808Z,242.43
2022-08-27T00:23:54.839Z,199.48
2022-08-27T00:26:23.744Z,119.88
2022-08-27T00:28:54.460Z,86.07
2022-08-27T00:31:27.147Z,55.50
2022-08-27T00:33:56.567Z,45.95
2022-08-27T00:36:25.352Z,34.35
2022-08-27T00:38:54.301Z,27.80
2022-08-27T00:41:23.577Z,24.23
2022-08-27T00:43:53.810Z,21.08
2022-08-27T00:46:26.519Z,15.20
2022-08-27T00:48:57.429Z,14.73
2022-08-27T00:51:26.535Z,16.20
2022-08-27T00:53:56.022Z,15.23
2022-08-27T00:56:27.148Z,15.07
2022-08-27T00:58:56.970Z,12.68
2022-08-27T01:01:29.352Z,12.73
2022-08-27T01:04:00.510Z,11.30
2022-08-27T01:06:32.459Z,12.38
2022-08-27T01:09:04.263Z,13.32
2022-08-27T01:11:33.404Z,13.57
2022-08-27T01:14:02.210Z,12.55
2022-08-27T01:16:35.737Z,10.10
2022-08-27T01:19:06.136Z,11.75
2022-08-27T01:21:38.146Z,10.57
2022-08-27T01:24:10.635Z,12.40
2022-08-27T01:26:40.717Z,13.73
2022-08-27T01:29:09.310Z,12.57
2022-08-27T01:31:38.173Z,11.90
2022-08-27T01:34:07.761Z,11.80
2022-08-27T01:36:36.724Z,11.23
2022-08-27T01:39:05.505Z,13.05
2022-08-27T01:41:34.591Z,11.75
2022-08-27T01:44:04.759Z,11.32
2022-08-27T01:46:33.447Z,12.15
2022-08-27T01:49:02.092Z,13.98
2022-08-27T01:51:30.699Z,11.20
2022-08-27T01:53:59.266Z,11.48
2022-08-27T01:56:27.946Z,9.02
2022-08-27T01:58:56.585Z,10.88
2022-08-27T02:01:26.574Z,11.93
2022-08-27T02:03:55.810Z,10.73
2022-08-27T02:06:24.449Z,13.30
2022-08-27T02:08:53.067Z,14.45
2022-08-27T02:11:21.759Z,11.77
2022-08-27T02:13:50.343Z,14.55
2022-08-27T02:16:18.991Z,13.05
2022-08-27T02:18:49.002Z,10.52
2022-08-27T02:21:18.016Z,12.82
2022-08-27T02:23:46.579Z,12.88
2022-08-27T02:26:15.271Z,12.25
2022-08-27T02:28:43.823Z,13.55
2022-08-27T02:31:12.500Z,12.65
2022-08-27T02:33:41.068Z,12.50
2022-08-27T02:36:13.735Z,13.10
2022-08-27T02:38:42.416Z,11.38
2022-08-27T02:41:11.067Z,17.30
2022-08-27T02:43:39.758Z,13.85
2022-08-27T02:46:08.805Z,13.20
2022-08-27T02:48:38.421Z,10.82
2022-08-27T02:51:07.350Z,11.55
2022-08-27T02:53:37.953Z,12.38
2022-08-27T02:56:07.130Z,11.10
2022-08-27T02:58:35.736Z,9.88
2022-08-27T03:01:04.860Z,9.48
2022-08-27T03:03:33.956Z,9.75
2022-08-27T03:06:02.586Z,9.95
2022-08-27T03:08:36.492Z,9.32
2022-08-27T03:11:22.516Z,7.82
2022-08-27T03:13:51.213Z,7.35
2022-08-27T03:16:20.221Z,8.35
2022-08-27T03:18:47.982Z,8.73
2022-08-27T03:21:19.380Z,6.70
2022-08-27T03:23:48.681Z,7.35
2022-08-27T03:26:17.404Z,7.30
2022-08-27T03:28:47.832Z,8.43
2022-08-27T03:31:20.524Z,7.60
2022-08-27T03:33:49.272Z,6.28
2022-08-27T03:36:17.911Z,7.85
2022-08-27T03:38:46.505Z,8.13
2022-08-27T03:41:16.108Z,6.43
2022-08-27T03:43:44.710Z,6.07
2022-08-27T03:46:14.759Z,6.85
2022-08-27T03:48:43.471Z,7.68
2022-08-27T03:51:13.373Z,6.63
2022-08-27T03:53:42.881Z,6.57
2022-08-27T03:56:11.819Z,6.78
2022-08-27T03:58:40.631Z,5.45
2022-08-27T04:01:09.657Z,7.05
2022-08-27T04:03:39.874Z,8.52
2022-08-27T04:06:08.863Z,8.60
2022-08-27T04:08:37.532Z,6.72
2022-08-27T04:11:07.380Z,7.97
2022-08-27T04:13:36.039Z,6.75
2022-08-27T04:16:07.315Z,6.38
2022-08-27T04:18:36.096Z,6.90
2022-08-27T04:21:11.244Z,7.53
2022-08-27T04:23:39.900Z,7.32
2022-08-27T04:26:08.987Z,6.93
2022-08-27T04:28:38.860Z,9.65
2022-08-27T04:31:13.919Z,9.05
2022-08-27T04:33:51.199Z,7.22
2022-08-27T04:36:22.077Z,6.38
2022-08-27T04:38:50.660Z,6.85
2022-08-27T04:41:23.130Z,7.03
2022-08-27T04:43:52.593Z,6.53
2022-08-27T04:46:21.980Z,8.57
2022-08-27T04:48:50.787Z,6.13
2022-08-27T04:51:22.094Z,7.18
2022-08-27T04:53:51.127Z,9.63
2022-08-27T04:56:21.778Z,8.82
2022-08-27T04:58:50.705Z,9.38
2022-08-27T05:01:20.458Z,9.00
2022-08-27T05:03:49.237Z,7.85
2022-08-27T05:06:18.541Z,8.82
2022-08-27T05:08:50.128Z,9.52
2022-08-27T05:11:19.480Z,9.18
2022-08-27T05:13:48.541Z,8.48
2022-08-27T05:16:19.307Z,7.88
2022-08-27T05:18:48.824Z,10.43
2022-08-27T05:21:18.616Z,7.45
2022-08-27T05:23:48.890Z,8.27
2022-08-27T05:26:17.785Z,9.05
2022-08-27T05:28:46.389Z,6.75
2022-08-27T05:31:15.789Z,8.10
2022-08-27T05:33:45.151Z,7.35
2022-08-27T05:36:17.235Z,7.47
2022-08-27T05:38:45.858Z,7.82
2022-08-27T05:41:17.388Z,7.30
2022-08-27T05:43:49.876Z,8.60
2022-08-27T05:46:20.313Z,6.28
2022-08-27T05:48:49.197Z,7.05
2022-08-27T05:51:25.222Z,6.28
2022-08-27T05:53:56.512Z,7.20
2022-08-27T05:56:27.977Z,7.72
2022-08-27T05:59:14.296Z,7.97
2022-08-27T06:01:44.928Z,8.57
2022-08-27T06:04:17.929Z,6.85
2022-08-27T06:06:47.368Z,9.32
2022-08-27T06:09:16.847Z,7.15
2022-08-27T06:11:46.858Z,7.70
2022-08-27T06:14:15.872Z,8.27
2022-08-27T06:16:44.550Z,5.68
2022-08-27T06:19:13.377Z,7.72
2022-08-27T06:21:43.006Z,5.13
2022-08-27T06:24:12.902Z,5.22
2022-08-27T06:26:42.286Z,4.63
2022-08-27T06:29:12.737Z,6.93
2022-08-27T06:31:41.608Z,6.80
2022-08-27T06:34:10.976Z,8.48
2022-08-27T06:36:41.412Z,5.22
2022-08-27T06:39:13.278Z,5.55
2022-08-27T06:41:42.776Z,4.78
2022-08-27T06:44:14.915Z,6.40
2022-08-27T06:46:43.940Z,6.53
2022-08-27T06:49:13.737Z,7.43
2022-08-27T06:51:42.865Z,8.85
2022-08-27T06:54:12.496Z,8.60
2022-08-27T06:56:41.549Z,7.72
2022-08-27T06:59:12.021Z,12.60
2022-08-27T07:01:42.808Z,9.05
2022-08-27T07:04:12.697Z,8.70
2022-08-27T07:06:41.837Z,10.35
2022-08-27T07:09:10.776Z,8.30
2022-08-27T07:11:39.858Z,8.82
2022-08-27T07:14:09.149Z,9.07
2022-08-27T07:16:39.636Z,8.98
2022-08-27T07:19:11.024Z,8.32
2022-08-27T07:21:40.920Z,10.48
2022-08-27T07:24:09.979Z,9.90
2022-08-27T07:26:40.764Z,9.57
2022-08-27T07:29:10.294Z,12.23
2022-08-27T07:31:40.279Z,10.00
2022-08-27T07:34:09.326Z,8.73
2022-08-27T07:36:39.502Z,8.55
2022-08-27T07:39:08.526Z,8.00
2022-08-27T07:41:58.466Z,8.95
2022-08-27T07:44:32.975Z,8.70
2022-08-27T07:47:03.669Z,7.85
2022-08-27T07:49:35.031Z,8.85
2022-08-27T07:52:05.516Z,7.43
2022-08-27T07:54:34.841Z,10.40
2022-08-27T07:57:03.431Z,9.07
2022-08-27T07:59:32.195Z,9.02
2022-08-27T08:02:00.828Z,8.93
2022-08-27T08:04:29.443Z,9.35
2022-08-27T08:06:58.303Z,11.07
2022-08-27T08:09:30.610Z,8.88
2022-08-27T08:11:59.243Z,9.50
2022-08-27T08:14:28.431Z,10.25
2022-08-27T08:17:00.533Z,10.07
2022-08-27T08:19:29.290Z,8.27
2022-08-27T08:22:05.353Z,9.35
2022-08-27T08:24:36.528Z,9.98
2022-08-27T08:27:07.459Z,11.33
2022-08-27T08:29:37.661Z,11.32
2022-08-27T08:32:06.785Z,10.30
2022-08-27T08:34:54.082Z,9.23
2022-08-27T08:37:41.797Z,8.45
2022-08-27T08:40:13.426Z,9.07
2022-08-27T08:45:12.481Z,8.27
2022-08-27T08:47:44.498Z,7.85
2022-08-27T08:50:19.237Z,7.25
2022-08-27T08:52:52.613Z,8.65
2022-08-27T08:55:37.060Z,7.25
2022-08-27T08:58:11.497Z,9.15
2022-08-27T09:00:40.765Z,6.88
2022-08-27T09:03:11.288Z,6.63
2022-08-27T09:05:42.494Z,7.03
2022-08-27T09:08:33.101Z,7.22
2022-08-27T09:11:26.454Z,7.57
2022-08-27T09:13:57.407Z,8.07
2022-08-27T09:16:26.140Z,7.53
2022-08-27T09:18:55.269Z,7.78
2022-08-27T09:21:32.903Z,8.38
2022-08-27T09:24:07.327Z,8.13
2022-08-27T09:26:38.795Z,8.15
2022-08-27T09:29:20.138Z,10.13
2022-08-27T09:31:50.691Z,7.80
2022-08-27T09:34:19.267Z,7.97
2022-08-27T09:36:50.924Z,8.23
2022-08-27T09:39:20.076Z,8.00
2022-08-27T09:41:50.948Z,8.30
2022-08-27T09:44:22.781Z,9.68
2022-08-27T09:46:55.942Z,9.23
2022-08-27T09:49:25.295Z,9.32
2022-08-27T09:51:54.693Z,8.60
2022-08-27T09:54:29.253Z,9.68
2022-08-27T09:57:28.839Z,8.13
2022-08-27T10:00:19.047Z,8.02
2022-08-27T10:02:52.789Z,10.77
2022-08-27T10:05:26.088Z,7.88
2022-08-27T10:07:56.978Z,8.48
2022-08-27T10:10:28.367Z,8.93
2022-08-27T10:13:00.997Z,9.38
2022-08-27T10:15:33.175Z,8.00
2022-08-27T10:18:14.346Z,7.53
2022-08-27T10:20:46.736Z,7.88
2022-08-27T10:23:20.990Z,8.02
2022-08-27T10:25:53.991Z,7.65
2022-08-27T10:28:33.402Z,8.75
2022-08-27T10:31:16.485Z,8.82
2022-08-27T10:33:48.835Z,8.70
2022-08-27T10:36:20.664Z,8.27
2022-08-27T10:38:52.229Z,10.90
2022-08-27T10:41:25.564Z,8.13
2022-08-27T10:44:05.415Z,9.75
2022-08-27T10:46:50.145Z,8.52
2022-08-27T10:49:22.368Z,9.07
2022-08-27T10:52:08.646Z,7.90
2022-08-27T10:54:40.234Z,8.95
2022-08-27T10:57:31.668Z,9.73
2022-08-27T11:00:10.214Z,8.57
2022-08-27T11:02:41.567Z,9.57
2022-08-27T11:05:14.801Z,9.73
2022-08-27T11:07:45.747Z,7.80
2022-08-27T11:10:20.945Z,7.90
2022-08-27T11:12:51.926Z,8.50
2022-08-27T11:15:24.722Z,8.52
2022-08-27T11:17:57.106Z,7.18
2022-08-27T11:20:27.823Z,9.00
2022-08-27T11:22:58.656Z,8.27
2022-08-27T11:25:32.722Z,7.63
2022-08-27T11:28:02.105Z,8.80
2022-08-27T11:30:37.661Z,6.85
2022-08-27T11:33:13.676Z,7.43
2022-08-27T11:35:47.929Z,6.70
2022-08-27T11:38:27.556Z,7.95
2022-08-27T11:41:01.263Z,7.18
2022-08-27T11:43:31.746Z,7.13
2022-08-27T11:46:02.791Z,7.10
2022-08-27T11:48:32.952Z,7.97
2022-08-27T11:51:03.210Z,7.70
2022-08-27T11:53:47.706Z,7.25
2022-08-27T11:56:23.197Z,8.90
2022-08-27T11:58:52.858Z,6.07
2022-08-27T12:01:28.164Z,7.93
2022-08-27T12:04:07.171Z,8.73
2022-08-27T12:06:43.566Z,7.57
2022-08-27T12:09:16.687Z,872.60
2022-08-27T12:11:54.697Z,201.45
2022-08-27T12:14:32.996Z,265.98
2022-08-27T12:17:06.279Z,207.02
2022-08-27T12:19:44.131Z,205.55
2022-08-27T12:22:22.092Z,233.60
2022-08-27T12:24:55.483Z,210.40
2022-08-27T12:27:42.334Z,164.20
2022-08-27T12:30:21.726Z,126.57
2022-08-27T12:32:53.017Z,110.63
2022-08-27T12:35:22.938Z,160.20
2022-08-27T12:37:56.976Z,336.92
2022-08-27T12:40:49.602Z,83.47
2022-08-27T12:43:21.230Z,55.30
2022-08-27T12:48:21.306Z,409.48
2022-08-27T12:53:28.295Z,162.13
2022-08-27T12:56:02.925Z,162.23
2022-08-27T12:58:37.868Z,153.32
2022-08-27T13:01:13.632Z,131.23
2022-08-27T13:03:46.758Z,151.95
2022-08-27T13:06:20.242Z,94.82
2022-08-27T13:08:54.956Z,108.00
2022-08-27T13:11:24.458Z,64.22
2022-08-27T13:13:53.510Z,43.47
2022-08-27T13:16:22.890Z,71.22
2022-08-27T13:18:53.459Z,41.13
2022-08-27T13:21:23.942Z,43.95
2022-08-27T13:23:56.035Z,25.45
2022-08-27T13:26:25.714Z,29.05
2022-08-27T13:28:54.463Z,30.27
2022-08-27T13:31:24.527Z,32.03
2022-08-27T13:33:58.643Z,28.38
2022-08-27T13:36:28.561Z,29.08
2022-08-27T13:39:01.127Z,23.23
2022-08-27T13:41:31.773Z,26.48
2022-08-27T13:44:07.823Z,21.63
2022-08-27T13:46:48.653Z,17.60
2022-08-27T13:49:23.085Z,16.20
2022-08-27T13:51:51.931Z,14.57
2022-08-27T13:54:19.679Z,14.43
2022-08-27T13:57:09.888Z,11.75
2022-08-27T13:59:43.370Z,14.65
2022-08-27T14:02:22.921Z,12.88
2022-08-27T14:05:04.600Z,10.85
2022-08-27T14:07:36.001Z,11.90
2022-08-27T14:10:07.496Z,10.60
2022-08-27T14:12:37.508Z,9.15
2022-08-27T14:15:17.149Z,9.25
2022-08-27T14:17:46.869Z,9.18
2022-08-27T14:20:16.995Z,11.75
2022-08-27T14:22:47.147Z,11.88
2022-08-27T14:25:16.326Z,79.80
2022-08-27T14:27:54.539Z,131.63
2022-08-27T14:30:29.916Z,178.20
2022-08-27T14:33:00.328Z,216.88
2022-08-27T14:35:31.144Z,241.82
2022-08-27T14:38:00.681Z,237.65
2022-08-27T14:40:29.275Z,215.85
2022-08-27T14:42:57.918Z,176.05
2022-08-27T14:45:26.474Z,142.38
2022-08-27T14:48:02.192Z,119.28
2022-08-27T14:50:32.530Z,182.95
2022-08-27T14:53:01.185Z,175.70
2022-08-27T14:55:31.197Z,301.08
2022-08-27T14:58:00.245Z,238.23
2022-08-27T15:00:30.376Z,255.90
2022-08-27T15:02:59.537Z,194.75
2022-08-27T15:05:28.561Z,166.15
2022-08-27T15:07:58.687Z,137.27
2022-08-27T15:10:27.721Z,149.10
2022-08-27T15:12:56.427Z,125.40
2022-08-27T15:15:25.053Z,108.65
2022-08-27T15:17:53.628Z,97.20
2022-08-27T15:20:22.413Z,207.77
2022-08-27T15:22:52.404Z,165.95
2022-08-27T15:25:22.984Z,158.85
2022-08-27T15:27:51.580Z,155.10
2022-08-27T15:30:24.586Z,171.75
2022-08-27T15:32:53.234Z,250.50
2022-08-27T15:35:26.314Z,166.77
2022-08-27T15:37:55.446Z,100.10
2022-08-27T15:40:26.184Z,88.15
2022-08-27T15:42:57.220Z,78.37
2022-08-27T15:45:27.689Z,67.10
2022-08-27T15:47:56.700Z,56.50
2022-08-27T15:50:25.319Z,46.90
2022-08-27T15:52:55.398Z,45.22
2022-08-27T15:55:26.992Z,40.78
2022-08-27T15:57:56.477Z,42.25
2022-08-27T16:00:26.181Z,45.83
2022-08-27T16:02:55.087Z,38.53
2022-08-27T16:05:23.999Z,35.72
2022-08-27T16:07:52.582Z,35.80
2022-08-27T16:10:21.320Z,32.72
2022-08-27T16:12:51.602Z,27.65
2022-08-27T16:15:20.360Z,25.17
2022-08-27T16:17:48.921Z,22.77
2022-08-27T16:20:17.616Z,22.30
2022-08-27T16:22:46.767Z,18.50
2022-08-27T16:25:18.623Z,16.80
2022-08-27T16:27:49.405Z,18.10
2022-08-27T16:30:19.921Z,16.27
2022-08-27T16:32:49.486Z,17.17
2022-08-27T16:35:18.292Z,17.67
2022-08-27T16:37:47.035Z,18.70
2022-08-27T16:40:16.113Z,19.20
2022-08-27T16:42:45.773Z,16.92
2022-08-27T16:45:14.948Z,14.82
2022-08-27T16:48:02.881Z,14.68
2022-08-27T16:50:34.791Z,13.90
2022-08-27T16:53:03.894Z,14.23
2022-08-27T16:55:32.508Z,15.80
2022-08-27T16:58:01.098Z,13.45
2022-08-27T17:00:30.344Z,14.55
2022-08-27T17:03:00.469Z,15.50
2022-08-27T17:05:33.881Z,14.05
2022-08-27T17:08:03.459Z,13.65
2022-08-27T17:10:34.795Z,11.55
2022-08-27T17:13:03.615Z,13.07
2022-08-27T17:15:32.347Z,12.82
2022-08-27T17:18:02.936Z,11.40
2022-08-27T17:20:33.479Z,11.27
2022-08-27T17:23:02.530Z,12.85
2022-08-27T17:25:31.283Z,11.52
2022-08-27T17:28:00.575Z,11.13
2022-08-27T17:30:29.570Z,10.50
2022-08-27T17:32:58.214Z,11.55
2022-08-27T17:35:28.249Z,11.38
2022-08-27T17:37:56.852Z,12.25
2022-08-27T17:40:25.543Z,10.70
2022-08-27T17:42:54.141Z,9.23
2022-08-27T17:45:22.792Z,10.80
2022-08-27T17:47:51.543Z,9.85
2022-08-27T17:50:21.589Z,9.48
2022-08-27T17:52:51.583Z,9.30
2022-08-27T17:55:20.251Z,12.02
2022-08-27T17:57:48.832Z,8.95
2022-08-27T18:00:17.772Z,12.38
2022-08-27T18:02:48.371Z,10.40
2022-08-27T18:05:18.291Z,10.80
2022-08-27T18:07:47.712Z,10.73
2022-08-27T18:10:18.988Z,10.00
2022-08-27T18:12:48.037Z,10.77
2022-08-27T18:15:19.591Z,11.73
2022-08-27T18:17:49.167Z,10.20
2022-08-27T18:20:23.062Z,9.60
2022-08-27T18:22:52.099Z,9.50
2022-08-27T18:25:24.510Z,11.00
2022-08-27T18:27:54.641Z,10.25
2022-08-27T18:30:23.575Z,10.23
2022-08-27T18:32:52.341Z,11.98
2022-08-27T18:35:22.657Z,9.52
2022-08-27T18:37:51.308Z,11.60
2022-08-27T18:40:21.313Z,12.52
2022-08-27T18:42:51.673Z,13.20
2022-08-27T18:45:23.348Z,14.10
2022-08-27T18:50:20.889Z,78.70
2022-08-27T18:52:50.234Z,169.48
2022-08-27T18:55:20.979Z,247.85
2022-08-27T18:57:51.032Z,196.63
2022-08-27T19:00:20.186Z,150.25
2022-08-27T19:02:52.729Z,193.15
2022-08-27T19:05:25.417Z,157.40
2022-08-27T19:07:55.770Z,127.50
2022-08-27T19:10:24.521Z,189.68
2022-08-27T19:12:55.168Z,318.10
2022-08-27T19:15:23.779Z,204.00
2022-08-27T19:17:53.845Z,145.35
2022-08-27T19:20:22.587Z,148.10
2022-08-27T19:22:51.171Z,160.95
2022-08-27T19:25:20.014Z,156.10
2022-08-27T19:27:48.703Z,207.80
2022-08-27T19:30:19.019Z,248.02
2022-08-27T19:32:47.728Z,169.60
2022-08-27T19:35:23.614Z,122.90
2022-08-27T19:37:53.563Z,237.13
2022-08-27T19:40:22.977Z,208.50
2022-08-27T19:42:51.655Z,249.55
2022-08-27T19:45:23.028Z,290.50
2022-08-27T19:47:53.379Z,348.80
2022-08-27T19:50:22.653Z,277.20
2022-08-27T19:52:51.349Z,199.88
2022-08-27T19:55:20.021Z,188.88
2022-08-27T19:57:48.834Z,157.35
2022-08-27T20:00:19.031Z,136.80
2022-08-27T20:02:50.808Z,139.73
2022-08-27T20:05:20.261Z,158.10
2022-08-27T20:07:49.187Z,208.40
2022-08-27T20:10:18.341Z,186.02
2022-08-27T20:12:47.154Z,567.38
2022-08-27T20:15:15.891Z,211.32
2022-08-27T20:17:45.211Z,214.00
2022-08-27T20:20:16.494Z,312.73
2022-08-27T20:22:45.292Z,159.13
2022-08-27T20:25:14.490Z,126.72
2022-08-27T20:27:43.544Z,91.13
2022-08-27T20:30:13.621Z,83.97
2022-08-27T20:32:42.303Z,56.13
2022-08-27T20:35:11.965Z,64.80
2022-08-27T20:37:42.677Z,48.95
2022-08-27T20:40:13.465Z,39.27
2022-08-27T20:42:42.153Z,40.97
2022-08-27T20:45:12.355Z,32.90
2022-08-27T20:47:41.361Z,17.58
2022-08-27T20:50:12.005Z,20.25
2022-08-27T20:52:42.441Z,19.38
2022-08-27T20:55:12.108Z,13.27
2022-08-27T20:58:06.326Z,10.27
2022-08-27T21:00:35.087Z,9.70
2022-08-27T21:03:03.745Z,8.68
2022-08-27T21:05:34.994Z,7.47
2022-08-27T21:08:05.981Z,5.72
2022-08-27T21:10:35.257Z,6.75
2022-08-27T21:13:05.699Z,5.03
2022-08-27T21:15:35.263Z,6.38
2022-08-27T21:18:04.376Z,4.15
2022-08-27T21:20:33.189Z,5.93
2022-08-27T21:23:01.890Z,4.95
2022-08-27T21:25:31.951Z,3.92
2022-08-27T21:28:00.380Z,5.32
2022-08-27T21:30:29.103Z,4.35
2022-08-27T21:32:57.709Z,5.05
2022-08-27T21:35:27.641Z,4.22
2022-08-27T21:37:56.542Z,5.82
2022-08-27T21:40:25.931Z,5.68
2022-08-27T21:42:56.009Z,3.15
2022-08-27T21:45:24.475Z,4.32
2022-08-27T21:47:52.888Z,3.38
2022-08-27T21:50:22.993Z,3.85
2022-08-27T21:52:51.833Z,3.28
2022-08-27T21:55:20.274Z,4.28
2022-08-27T21:57:48.945Z,4.60
2022-08-27T22:00:41.109Z,5.65
2022-08-27T22:03:13.373Z,4.65
2022-08-27T22:05:43.670Z,4.32
2022-08-27T22:08:13.528Z,4.85
2022-08-27T22:10:44.133Z,4.82
2022-08-27T22:13:12.977Z,3.85
2022-08-27T22:15:43.196Z,5.82
2022-08-27T22:18:12.036Z,3.88
2022-08-27T22:20:41.282Z,5.43
2022-08-27T22:23:13.182Z,3.90
2022-08-27T22:25:43.541Z,3.83
2022-08-27T22:28:12.841Z,2.72
2022-08-27T22:30:43.294Z,4.55
2022-08-27T22:33:12.255Z,4.20
2022-08-27T22:35:40.982Z,4.45
2022-08-27T22:38:11.347Z,4.97
2022-08-27T22:40:40.277Z,3.47
2022-08-27T22:43:09.244Z,4.20
2022-08-27T22:45:37.674Z,3.55
2022-08-27T22:48:07.360Z,2.72
2022-08-27T22:50:35.654Z,3.67
2022-08-27T22:53:03.922Z,4.05
2022-08-27T22:55:32.219Z,2.83
2022-08-27T22:58:02.007Z,3.97
2022-08-27T23:00:40.781Z,3.08
2022-08-27T23:03:11.488Z,4.20
2022-08-27T23:05:41.850Z,4.47
2022-08-27T23:08:13.151Z,3.05
2022-08-27T23:10:43.212Z,3.53
2022-08-27T23:13:12.526Z,3.88
2022-08-27T23:15:42.171Z,5.22
2022-08-27T23:18:12.061Z,4.60
2022-08-27T23:20:40.807Z,4.65
2022-08-27T23:23:10.187Z,5.03
2022-08-27T23:25:56.269Z,4.28
2022-08-27T23:28:24.639Z,4.80
2022-08-27T23:30:53.685Z,3.92
2022-08-27T23:33:23.363Z,6.45
2022-08-27T23:35:51.931Z,4.43
2022-08-27T23:38:21.722Z,4.68
2022-08-27T23:40:52.210Z,3.05
2022-08-27T23:43:21.366Z,3.70
2022-08-27T23:45:49.904Z,3.20
2022-08-27T23:48:18.313Z,3.88
2022-08-27T23:50:48.289Z,3.10
2022-08-27T23:53:16.634Z,3.08
2022-08-27T23:55:44.921Z,2.75
2022-08-27T23:58:13.357Z,3.50
